createdAt,value
2022-11-20T00:00:30.558Z,27.13
2022-11-20T00:02:59.565Z,30.03
2022-11-20T00:05:27.372Z,25.47
2022-11-20T00:07:55.064Z,25.40
2022-11-20T00:10:22.799Z,29.10
2022-11-20T00:12:50.686Z,25.67
2022-11-20T00:15:18.552Z,27.37
2022-11-20T00:17:47.542Z,27.13
2022-11-20T00:20:16.970Z,28.17
2022-11-20T00:22:44.766Z,26.77
2022-11-20T00:25:12.524Z,23.87
2022-11-20T00:27:40.338Z,28.23
2022-11-20T00:30:12.378Z,28.37
2022-11-20T00:32:42.531Z,28.07
2022-11-20T00:35:10.736Z,26.93
2022-11-20T00:37:39.765Z,28.77
2022-11-20T00:40:08.848Z,31.60
2022-11-20T00:42:37.046Z,30.23
2022-11-20T00:45:05.266Z,28.57
2022-11-20T00:47:32.980Z,27.70
2022-11-20T00:50:00.737Z,28.63
2022-11-20T00:52:28.494Z,26.60
2022-11-20T00:54:57.514Z,27.00
2022-11-20T00:57:25.286Z,27.53
2022-11-20T00:59:53.061Z,28.80
2022-11-20T01:02:20.733Z,30.73
2022-11-20T01:04:48.511Z,29.63
2022-11-20T01:07:16.799Z,25.30
2022-11-20T01:09:44.532Z,24.80
2022-11-20T01:12:13.609Z,26.30
2022-11-20T01:14:41.284Z,23.97
2022-11-20T01:17:08.980Z,24.47
2022-11-20T01:19:36.725Z,24.50
2022-11-20T01:22:04.451Z,24.77
2022-11-20T01:24:32.200Z,32.27
2022-11-20T01:26:59.946Z,27.77
2022-11-20T01:29:29.019Z,25.37
2022-11-20T01:31:56.735Z,26.70
2022-11-20T01:34:25.886Z,25.93
2022-11-20T01:36:54.731Z,26.03
2022-11-20T01:39:24.517Z,26.70
2022-11-20T01:42:12.070Z,26.47
2022-11-20T01:44:53.840Z,25.00
2022-11-20T01:47:27.495Z,26.90
2022-11-20T01:50:00.995Z,25.70
2022-11-20T01:52:33.932Z,25.77
2022-11-20T01:55:05.710Z,27.63
2022-11-20T01:57:36.291Z,26.03
2022-11-20T02:00:08.629Z,25.10
2022-11-20T02:02:37.332Z,22.20
2022-11-20T02:05:14.110Z,22.77
2022-11-20T02:07:42.822Z,19.03
2022-11-20T02:10:10.535Z,21.83
2022-11-20T02:12:55.772Z,20.57
2022-11-20T02:15:29.026Z,20.90
2022-11-20T02:17:58.164Z,21.63
2022-11-20T02:20:25.869Z,21.50
2022-11-20T02:22:59.967Z,19.53
2022-11-20T02:25:31.083Z,22.77
2022-11-20T02:27:58.809Z,21.40
2022-11-20T02:30:26.779Z,21.27
2022-11-20T02:32:54.577Z,20.83
2022-11-20T02:35:46.894Z,24.37
2022-11-20T02:38:15.585Z,19.40
2022-11-20T02:40:44.932Z,22.30
2022-11-20T02:43:13.118Z,22.83
2022-11-20T02:45:40.953Z,21.37
2022-11-20T02:48:09.636Z,19.90
2022-11-20T02:50:39.373Z,21.60
2022-11-20T02:53:07.231Z,22.83
2022-11-20T02:55:35.209Z,20.37
2022-11-20T02:58:04.532Z,22.23
2022-11-20T03:00:32.906Z,21.13
2022-11-20T03:03:00.659Z,19.73
2022-11-20T03:05:28.339Z,18.77
2022-11-20T03:07:55.989Z,19.03
2022-11-20T03:10:23.753Z,20.03
2022-11-20T03:12:56.185Z,19.60
2022-11-20T03:15:26.058Z,18.70
2022-11-20T03:17:55.790Z,19.23
2022-11-20T03:20:24.062Z,19.53
2022-11-20T03:22:51.899Z,18.40
2022-11-20T03:25:19.587Z,18.00
2022-11-20T03:27:47.368Z,20.07
2022-11-20T03:30:15.903Z,19.77
2022-11-20T03:32:45.403Z,20.10
2022-11-20T03:35:13.188Z,19.37
2022-11-20T03:37:40.849Z,18.10
2022-11-20T03:40:09.473Z,19.63
2022-11-20T03:42:49.118Z,20.13
2022-11-20T03:45:18.587Z,20.47
2022-11-20T03:47:48.145Z,20.07
2022-11-20T03:50:16.304Z,21.97
2022-11-20T03:52:44.305Z,22.27
2022-11-20T03:55:13.722Z,22.43
2022-11-20T03:57:41.817Z,20.30
2022-11-20T04:00:10.558Z,22.53
2022-11-20T04:02:38.208Z,23.93
2022-11-20T04:05:08.283Z,21.57
2022-11-20T04:07:36.588Z,21.40
2022-11-20T04:10:04.826Z,21.40
2022-11-20T04:12:34.876Z,21.80
2022-11-20T04:15:02.791Z,22.43
2022-11-20T04:17:30.488Z,23.17
2022-11-20T04:19:58.190Z,23.37
2022-11-20T04:22:27.266Z,23.50
2022-11-20T04:24:55.003Z,24.33
2022-11-20T04:27:23.090Z,20.53
2022-11-20T04:29:50.780Z,21.27
2022-11-20T04:32:18.425Z,21.87
2022-11-20T04:34:46.071Z,19.77
2022-11-20T04:37:13.806Z,18.77
2022-11-20T04:39:43.055Z,22.33
2022-11-20T04:42:28.035Z,20.70
2022-11-20T04:44:55.753Z,18.60
2022-11-20T04:47:23.652Z,22.00
2022-11-20T04:49:51.430Z,24.03
2022-11-20T04:52:19.178Z,21.83
2022-11-20T04:54:48.164Z,19.30
2022-11-20T04:57:17.613Z,25.50
2022-11-20T04:59:45.266Z,19.73
2022-11-20T05:02:13.511Z,19.70
2022-11-20T05:04:41.239Z,24.30
2022-11-20T05:07:09.001Z,20.23
2022-11-20T05:09:36.853Z,22.27
2022-11-20T05:12:06.684Z,21.47
2022-11-20T05:14:34.424Z,19.70
2022-11-20T05:17:02.211Z,20.90
2022-11-20T05:19:29.896Z,22.50
2022-11-20T05:21:58.437Z,19.33
2022-11-20T05:24:26.089Z,22.37
2022-11-20T05:26:53.750Z,21.17
2022-11-20T05:29:23.039Z,20.17
2022-11-20T05:31:50.941Z,21.37
2022-11-20T05:34:18.683Z,23.10
2022-11-20T05:36:46.407Z,22.40
2022-11-20T05:39:16.169Z,20.37
2022-11-20T05:41:43.871Z,17.80
2022-11-20T05:44:12.488Z,18.97
2022-11-20T05:46:41.504Z,19.53
2022-11-20T05:49:09.284Z,21.73
2022-11-20T05:51:36.961Z,21.23
2022-11-20T05:54:04.714Z,23.37
2022-11-20T05:56:32.446Z,23.90
2022-11-20T05:59:00.157Z,22.97
2022-11-20T06:01:27.976Z,24.77
2022-11-20T06:03:57.296Z,23.20
2022-11-20T06:06:26.204Z,25.23
2022-11-20T06:08:53.925Z,21.33
2022-11-20T06:11:21.658Z,23.10
2022-11-20T06:13:50.781Z,22.77
2022-11-20T06:16:21.332Z,22.63
2022-11-20T06:18:49.444Z,22.60
2022-11-20T06:21:20.596Z,24.03
2022-11-20T06:23:49.027Z,23.87
2022-11-20T06:26:18.698Z,25.57
2022-11-20T06:28:46.988Z,23.63
2022-11-20T06:31:16.358Z,23.03
2022-11-20T06:33:44.899Z,20.93
2022-11-20T06:36:14.186Z,22.83
2022-11-20T06:38:43.982Z,22.40
2022-11-20T06:41:14.240Z,20.83
2022-11-20T06:43:42.252Z,22.63
2022-11-20T06:46:11.677Z,21.40
2022-11-20T06:48:39.355Z,23.33
2022-11-20T06:51:08.084Z,20.93
2022-11-20T06:53:36.578Z,21.27
2022-11-20T06:56:06.022Z,24.43
2022-11-20T06:58:35.267Z,24.70
2022-11-20T07:01:04.969Z,21.77
2022-11-20T07:03:32.752Z,25.07
2022-11-20T07:06:02.740Z,22.77
2022-11-20T07:08:31.756Z,21.13
2022-11-20T07:11:00.624Z,22.37
2022-11-20T07:13:30.561Z,22.00
2022-11-20T07:16:01.535Z,22.53
2022-11-20T07:18:29.304Z,24.97
2022-11-20T07:20:57.108Z,22.77
2022-11-20T07:23:24.828Z,24.20
2022-11-20T07:25:52.586Z,23.93
2022-11-20T07:28:20.232Z,21.73
2022-11-20T07:30:53.534Z,25.47
2022-11-20T07:33:21.619Z,25.57
2022-11-20T07:35:49.311Z,26.27
2022-11-20T07:38:17.047Z,24.23
2022-11-20T07:40:44.918Z,26.40
2022-11-20T07:43:12.697Z,23.83
2022-11-20T07:45:40.856Z,24.60
2022-11-20T07:48:09.905Z,23.47
2022-11-20T07:50:37.716Z,26.50
2022-11-20T07:53:06.433Z,23.83
2022-11-20T07:55:37.257Z,27.33
2022-11-20T07:58:06.602Z,26.30
2022-11-20T08:00:34.420Z,24.20
2022-11-20T08:03:05.568Z,22.47
2022-11-20T08:05:41.593Z,22.33
2022-11-20T08:08:09.293Z,22.87
2022-11-20T08:10:39.312Z,24.77
2022-11-20T08:13:24.653Z,21.77
2022-11-20T08:15:55.359Z,24.20
2022-11-20T08:18:31.262Z,23.10
2022-11-20T08:21:05.330Z,22.03
2022-11-20T08:23:33.213Z,21.70
2022-11-20T08:26:01.008Z,19.83
2022-11-20T08:28:28.712Z,20.07
2022-11-20T08:31:02.278Z,19.07
2022-11-20T08:33:30.770Z,19.97
2022-11-20T08:36:02.981Z,21.23
2022-11-20T08:38:31.402Z,21.03
2022-11-20T08:41:17.098Z,22.17
2022-11-20T08:43:44.855Z,21.83
2022-11-20T08:46:12.621Z,20.27
2022-11-20T08:48:40.242Z,21.97
2022-11-20T08:51:09.278Z,24.53
2022-11-20T08:53:36.927Z,23.90
2022-11-20T08:56:04.904Z,22.30
2022-11-20T08:58:48.860Z,24.13
2022-11-20T09:01:20.972Z,24.60
2022-11-20T09:03:49.167Z,22.00
2022-11-20T09:06:18.593Z,23.67
2022-11-20T09:08:46.508Z,23.23
2022-11-20T09:11:14.346Z,21.90
2022-11-20T09:13:42.206Z,22.33
2022-11-20T09:16:11.569Z,22.43
2022-11-20T09:18:40.094Z,24.00
2022-11-20T09:21:11.260Z,22.37
2022-11-20T09:23:41.051Z,22.73
2022-11-20T09:26:12.605Z,28.37
2022-11-20T09:28:41.064Z,21.90
2022-11-20T09:31:09.813Z,22.40
2022-11-20T09:33:38.049Z,22.17
2022-11-20T09:36:06.468Z,23.63
2022-11-20T09:38:34.271Z,20.63
2022-11-20T09:41:06.298Z,24.50
2022-11-20T09:43:52.052Z,24.33
2022-11-20T09:46:30.365Z,23.47
2022-11-20T09:49:14.923Z,25.83
2022-11-20T09:51:52.185Z,26.03
2022-11-20T09:54:21.958Z,25.87
2022-11-20T09:56:55.847Z,22.03
2022-11-20T09:59:35.916Z,26.30
2022-11-20T10:02:16.883Z,25.37
2022-11-20T10:04:55.464Z,26.00
2022-11-20T10:07:34.307Z,26.57
2022-11-20T10:10:02.625Z,24.97
2022-11-20T10:12:49.980Z,24.73
2022-11-20T10:15:31.812Z,26.27
2022-11-20T10:18:11.567Z,21.93
2022-11-20T10:20:48.749Z,24.27
2022-11-20T10:23:35.314Z,27.47
2022-11-20T10:26:05.238Z,26.70
2022-11-20T10:28:57.207Z,26.90
2022-11-20T10:31:33.995Z,24.23
2022-11-20T10:34:12.118Z,28.00
2022-11-20T10:36:46.087Z,25.57
2022-11-20T10:39:21.457Z,28.20
2022-11-20T10:41:53.820Z,31.57
2022-11-20T10:44:45.622Z,29.53
2022-11-20T10:47:16.576Z,27.73
2022-11-20T10:49:48.155Z,28.57
2022-11-20T10:52:35.169Z,28.37
2022-11-20T10:55:10.492Z,30.63
2022-11-20T10:57:53.420Z,27.80
2022-11-20T11:00:22.807Z,27.47
2022-11-20T11:02:52.387Z,31.37
2022-11-20T11:05:29.217Z,32.70
2022-11-20T11:07:58.479Z,26.17
2022-11-20T11:10:32.510Z,26.97
2022-11-20T11:13:00.440Z,31.53
2022-11-20T11:15:32.301Z,26.67
2022-11-20T11:18:00.084Z,30.57
2022-11-20T11:20:28.267Z,29.67
2022-11-20T11:22:58.152Z,34.00
2022-11-20T11:25:30.695Z,26.13
2022-11-20T11:28:02.015Z,28.50
2022-11-20T11:30:32.962Z,30.13
2022-11-20T11:33:08.798Z,27.13
2022-11-20T11:35:49.899Z,26.03
2022-11-20T11:38:32.786Z,26.53
2022-11-20T11:41:00.959Z,27.93
2022-11-20T11:43:49.662Z,31.87
2022-11-20T11:46:46.179Z,29.40
2022-11-20T11:49:20.682Z,28.70
2022-11-20T11:52:00.338Z,28.43
2022-11-20T11:54:36.086Z,28.57
2022-11-20T11:57:12.685Z,28.60
2022-11-20T11:59:54.564Z,25.73
2022-11-20T12:02:34.804Z,26.77
2022-11-20T12:05:11.179Z,25.20
2022-11-20T12:07:47.529Z,25.67
2022-11-20T12:10:23.696Z,28.13
2022-11-20T12:12:56.997Z,26.60
2022-11-20T12:15:32.844Z,27.80
2022-11-20T12:18:02.720Z,27.03
2022-11-20T12:20:40.169Z,27.50
2022-11-20T12:23:18.578Z,28.27
2022-11-20T12:25:53.915Z,28.57
2022-11-20T12:28:38.000Z,33.53
2022-11-20T12:31:25.798Z,28.43
2022-11-20T12:34:11.614Z,29.23
2022-11-20T12:36:47.974Z,26.97
2022-11-20T12:39:29.436Z,30.93
2022-11-20T12:42:32.343Z,26.83
2022-11-20T12:45:26.724Z,26.00
2022-11-20T12:48:09.458Z,24.90
2022-11-20T12:51:13.540Z,26.47
2022-11-20T12:53:45.927Z,24.80
2022-11-20T12:56:25.438Z,26.80
2022-11-20T12:59:04.693Z,26.33
2022-11-20T13:01:51.635Z,26.23
2022-11-20T13:04:32.491Z,24.30
2022-11-20T13:07:03.715Z,26.63
2022-11-20T13:09:32.279Z,25.17
2022-11-20T13:12:07.375Z,26.40
2022-11-20T13:14:39.621Z,25.83
2022-11-20T13:17:13.711Z,24.53
2022-11-20T13:19:41.918Z,22.20
2022-11-20T13:22:11.539Z,24.60
2022-11-20T13:24:39.383Z,25.10
2022-11-20T13:27:24.334Z,21.40
2022-11-20T13:30:04.617Z,21.97
2022-11-20T13:32:33.385Z,24.90
2022-11-20T13:35:02.719Z,22.00
2022-11-20T13:37:34.321Z,20.90
2022-11-20T13:40:24.959Z,21.57
2022-11-20T13:43:09.363Z,21.80
2022-11-20T13:45:37.102Z,26.90
2022-11-20T13:48:07.354Z,20.07
2022-11-20T13:50:48.307Z,22.17
2022-11-20T13:53:34.138Z,21.47
2022-11-20T13:56:07.471Z,21.43
2022-11-20T13:58:56.620Z,21.63
2022-11-20T14:01:27.226Z,20.43
2022-11-20T14:04:10.888Z,24.03
2022-11-20T14:06:44.597Z,26.17
2022-11-20T14:09:28.440Z,24.87
2022-11-20T14:11:56.165Z,25.57
2022-11-20T14:14:25.804Z,25.77
2022-11-20T14:16:55.357Z,23.30
2022-11-20T14:19:29.908Z,21.27
2022-11-20T14:22:12.627Z,19.87
2022-11-20T14:24:41.797Z,18.30
2022-11-20T14:27:15.365Z,13.73
2022-11-20T14:29:45.377Z,14.70
2022-11-20T14:32:13.539Z,14.00
2022-11-20T14:34:43.860Z,14.40
2022-11-20T14:37:17.229Z,11.23
2022-11-20T14:39:54.712Z,14.30
2022-11-20T14:42:25.028Z,10.57
2022-11-20T14:44:53.731Z,9.67
2022-11-20T14:47:25.571Z,7.50
2022-11-20T14:49:55.254Z,10.83
2022-11-20T14:52:24.649Z,9.27
2022-11-20T14:54:55.209Z,7.73
2022-11-20T14:57:28.053Z,7.00
2022-11-20T15:00:20.830Z,6.37
2022-11-20T15:02:50.679Z,4.40
2022-11-20T15:05:20.693Z,4.47
2022-11-20T15:07:50.700Z,4.23
2022-11-20T15:10:25.306Z,6.97
2022-11-20T15:12:54.688Z,4.90
2022-11-20T15:15:26.908Z,4.80
2022-11-20T15:17:55.302Z,6.07
2022-11-20T15:20:26.075Z,4.67
2022-11-20T15:22:53.990Z,5.37
2022-11-20T15:25:25.423Z,4.17
2022-11-20T15:27:56.905Z,6.07
2022-11-20T15:30:25.589Z,6.37
2022-11-20T15:32:53.277Z,8.63
2022-11-20T15:35:20.988Z,7.63
2022-11-20T15:37:49.088Z,8.03
2022-11-20T15:40:17.104Z,8.70
2022-11-20T15:43:00.129Z,5.97
2022-11-20T15:45:30.450Z,8.33
2022-11-20T15:47:58.284Z,7.03
2022-11-20T15:50:31.826Z,7.40
2022-11-20T15:52:59.924Z,7.50
2022-11-20T15:55:28.255Z,4.83
2022-11-20T15:57:57.414Z,7.60
2022-11-20T16:00:25.152Z,5.50
2022-11-20T16:02:52.853Z,7.03
2022-11-20T16:05:20.581Z,6.70
2022-11-20T16:07:48.266Z,7.63
2022-11-20T16:10:16.344Z,4.83
2022-11-20T16:13:01.415Z,3.73
2022-11-20T16:15:49.116Z,4.30
2022-11-20T16:18:19.261Z,3.47
2022-11-20T16:20:48.349Z,4.20
2022-11-20T16:23:17.472Z,5.33
2022-11-20T16:25:45.818Z,4.20
2022-11-20T16:28:18.602Z,6.00
2022-11-20T16:30:48.693Z,7.63
2022-11-20T16:33:18.074Z,3.70
2022-11-20T16:35:45.869Z,6.13
2022-11-20T16:38:13.907Z,5.20
2022-11-20T16:40:41.624Z,6.27
2022-11-20T16:43:11.773Z,5.33
2022-11-20T16:45:43.700Z,5.30
2022-11-20T16:48:17.869Z,4.37
2022-11-20T16:50:51.000Z,4.50
2022-11-20T16:53:19.704Z,5.20
2022-11-20T16:55:47.716Z,6.40
2022-11-20T16:58:15.740Z,4.00
2022-11-20T17:00:48.302Z,5.03
2022-11-20T17:03:19.311Z,7.37
2022-11-20T17:05:47.026Z,11.73
2022-11-20T17:08:14.744Z,4.83
2022-11-20T17:10:42.614Z,8.63
2022-11-20T17:13:10.406Z,9.70
2022-11-20T17:15:38.562Z,4.73
2022-11-20T17:18:06.435Z,7.47
2022-11-20T17:20:35.624Z,6.07
2022-11-20T17:23:03.309Z,7.43
2022-11-20T17:25:33.822Z,4.60
2022-11-20T17:28:01.521Z,5.23
2022-11-20T17:30:29.230Z,5.57
2022-11-20T17:32:57.034Z,4.67
2022-11-20T17:35:24.721Z,6.77
2022-11-20T17:37:53.804Z,7.60
2022-11-20T17:40:26.013Z,5.13
2022-11-20T17:42:55.173Z,6.00
2022-11-20T17:45:22.872Z,6.13
2022-11-20T17:47:50.634Z,7.83
2022-11-20T17:50:18.624Z,4.30
2022-11-20T17:52:46.552Z,5.60
2022-11-20T17:55:15.870Z,5.60
2022-11-20T17:57:56.721Z,5.13
2022-11-20T18:00:26.976Z,7.27
2022-11-20T18:02:55.249Z,6.90
2022-11-20T18:05:23.145Z,7.87
2022-11-20T18:07:53.764Z,7.97
2022-11-20T18:10:23.085Z,6.20
2022-11-20T18:12:50.925Z,8.17
2022-11-20T18:15:18.929Z,6.27
2022-11-20T18:17:46.803Z,7.33
2022-11-20T18:20:28.529Z,7.80
2022-11-20T18:22:57.440Z,8.87
2022-11-20T18:25:26.525Z,10.80
2022-11-20T18:27:54.290Z,4.93
2022-11-20T18:30:22.308Z,3.70
2022-11-20T18:32:50.173Z,6.57
2022-11-20T18:35:18.478Z,10.47
2022-11-20T18:37:46.355Z,6.87
2022-11-20T18:40:14.944Z,6.40
2022-11-20T18:43:01.232Z,6.23
2022-11-20T18:45:30.395Z,3.13
2022-11-20T18:47:58.154Z,6.70
2022-11-20T18:50:25.972Z,4.47
2022-11-20T18:52:53.749Z,5.47
2022-11-20T18:55:24.333Z,6.90
2022-11-20T18:57:55.170Z,5.70
2022-11-20T19:00:25.169Z,4.37
2022-11-20T19:02:55.181Z,12.03
2022-11-20T19:05:23.000Z,7.73
2022-11-20T19:07:51.106Z,6.77
2022-11-20T19:10:20.541Z,4.63
2022-11-20T19:12:48.808Z,5.17
2022-11-20T19:15:18.046Z,6.03
2022-11-20T19:17:45.882Z,4.50
2022-11-20T19:20:13.953Z,5.60
2022-11-20T19:22:41.752Z,6.00
2022-11-20T19:25:10.028Z,5.40
2022-11-20T19:27:38.471Z,5.53
2022-11-20T19:30:07.665Z,3.77
2022-11-20T19:32:37.036Z,5.70
2022-11-20T19:35:05.334Z,4.93
2022-11-20T19:37:34.503Z,2.73
2022-11-20T19:40:04.779Z,5.27
2022-11-20T19:42:33.363Z,2.10
2022-11-20T19:45:01.129Z,1.90
2022-11-20T19:47:52.676Z,3.77
2022-11-20T19:50:18.413Z,2.20
2022-11-20T19:52:46.333Z,1.57
2022-11-20T19:55:14.095Z,1.40
2022-11-20T19:57:42.019Z,1.37
2022-11-20T20:00:12.614Z,1.33
2022-11-20T20:02:40.793Z,1.23
2022-11-20T20:05:09.170Z,1.40
2022-11-20T20:07:40.190Z,1.87
2022-11-20T20:10:09.487Z,2.13
2022-11-20T20:12:37.354Z,1.60
2022-11-20T20:15:06.056Z,4.30
2022-11-20T20:17:33.882Z,1.87
2022-11-20T20:20:01.632Z,2.77
2022-11-20T20:22:29.538Z,2.90
2022-11-20T20:24:58.743Z,2.80
2022-11-20T20:27:26.620Z,4.73
2022-11-20T20:29:54.447Z,2.80
2022-11-20T20:32:22.184Z,3.03
2022-11-20T20:34:50.161Z,2.50
2022-11-20T20:37:18.070Z,2.90
2022-11-20T20:39:45.937Z,3.00
2022-11-20T20:42:15.089Z,2.37
2022-11-20T20:45:00.646Z,2.83
2022-11-20T20:47:31.296Z,1.37
2022-11-20T20:49:59.195Z,2.20
2022-11-20T20:52:27.864Z,2.80
2022-11-20T20:54:56.279Z,2.77
2022-11-20T20:57:27.708Z,1.67
2022-11-20T20:59:55.821Z,3.43
2022-11-20T21:02:24.434Z,2.90
2022-11-20T21:04:52.614Z,2.37
2022-11-20T21:07:20.749Z,2.33
2022-11-20T21:09:48.639Z,2.67
2022-11-20T21:12:16.613Z,3.97
2022-11-20T21:14:45.794Z,2.67
2022-11-20T21:17:15.525Z,4.93
2022-11-20T21:19:43.399Z,2.67
2022-11-20T21:22:10.437Z,3.53
2022-11-20T21:24:38.490Z,2.17
2022-11-20T21:27:08.026Z,2.00
2022-11-20T21:29:35.867Z,3.47
2022-11-20T21:32:05.301Z,5.60
2022-11-20T21:34:33.170Z,2.57
2022-11-20T21:37:01.022Z,4.00
2022-11-20T21:39:30.412Z,6.53
2022-11-20T21:41:58.268Z,3.33
2022-11-20T21:44:33.030Z,2.43
2022-11-20T21:47:00.855Z,2.67
2022-11-20T21:49:29.924Z,3.40
2022-11-20T21:51:57.703Z,2.60
2022-11-20T21:54:25.805Z,8.73
2022-11-20T21:56:53.883Z,2.73
2022-11-20T21:59:22.231Z,2.77
2022-11-20T22:01:50.175Z,2.93
2022-11-20T22:04:18.022Z,3.77
2022-11-20T22:06:47.217Z,3.47
2022-11-20T22:09:15.399Z,7.53
2022-11-20T22:11:43.262Z,7.60
2022-11-20T22:14:23.832Z,4.63
2022-11-20T22:16:53.907Z,6.50
2022-11-20T22:19:22.665Z,5.20
2022-11-20T22:21:52.310Z,4.67
2022-11-20T22:24:21.829Z,5.80
2022-11-20T22:26:50.670Z,6.63
2022-11-20T22:29:20.760Z,4.70
2022-11-20T22:31:48.891Z,3.40
2022-11-20T22:34:16.675Z,4.50
2022-11-20T22:36:44.646Z,7.40
2022-11-20T22:39:13.793Z,7.33
2022-11-20T22:41:41.494Z,13.67
2022-11-20T22:44:09.732Z,5.93
2022-11-20T22:46:38.236Z,7.77
2022-11-20T22:49:07.348Z,7.13
2022-11-20T22:51:37.146Z,6.87
2022-11-20T22:54:05.554Z,7.37
2022-11-20T22:56:35.149Z,5.10
2022-11-20T22:59:02.895Z,9.57
2022-11-20T23:01:32.215Z,5.77
2022-11-20T23:04:01.353Z,8.37
2022-11-20T23:06:29.701Z,6.67
2022-11-20T23:08:57.631Z,8.33
2022-11-20T23:11:27.185Z,4.40
2022-11-20T23:13:57.992Z,4.97
2022-11-20T23:16:27.054Z,6.37
2022-11-20T23:18:55.449Z,6.33
2022-11-20T23:21:23.185Z,8.70
2022-11-20T23:23:52.593Z,8.77
2022-11-20T23:26:22.351Z,13.03
2022-11-20T23:28:50.328Z,5.97
2022-11-20T23:31:19.456Z,8.30
2022-11-20T23:33:47.731Z,7.10
2022-11-20T23:36:15.688Z,6.77
2022-11-20T23:38:43.698Z,10.03
2022-11-20T23:41:12.405Z,8.73
2022-11-20T23:43:40.335Z,10.37
2022-11-20T23:46:11.432Z,7.47
2022-11-20T23:48:42.978Z,12.50
2022-11-20T23:51:10.756Z,6.23
2022-11-20T23:53:38.420Z,9.53
2022-11-20T23:56:06.872Z,8.93
2022-11-20T23:58:36.197Z,6.67
